sensor_id;sensor_type;location;lat;lon;timestamp;P1;durP1;ratioP1;P2;durP2;ratioP2
12145;SDS011;6136;47.032;15.398;2024-03-08T00:00:12;10.07;;;7.07;;
12145;SDS011;6136;47.032;15.398;2024-03-08T00:02:42;10.77;;;7.50;;
12145;SDS011;6136;47.032;15.398;2024-03-08T00:05:11;8.90;;;6.73;;
12145;SDS011;6136;47.032;15.398;2024-03-08T00:07:41;12.00;;;8.23;;
12145;SDS011;6136;47.032;15.398;2024-03-08T00:10:10;10.87;;;7.27;;
12145;SDS011;6136;47.032;15.398;2024-03-08T00:12:40;9.30;;;7.50;;
12145;SDS011;6136;47.032;15.398;2024-03-08T00:15:09;12.03;;;7.60;;
12145;SDS011;6136;47.032;15.398;2024-03-08T00:17:41;13.33;;;8.80;;
12145;SDS011;6136;47.032;15.398;2024-03-08T00:20:09;14.03;;;9.57;;
12145;SDS011;6136;47.032;15.398;2024-03-08T00:22:37;10.87;;;8.27;;
12145;SDS011;6136;47.032;15.398;2024-03-08T00:25:07;12.27;;;8.20;;
12145;SDS011;6136;47.032;15.398;2024-03-08T00:27:36;10.90;;;7.40;;
12145;SDS011;6136;47.032;15.398;2024-03-08T00:30:05;12.57;;;8.37;;
12145;SDS011;6136;47.032;15.398;2024-03-08T00:32:33;12.87;;;7.57;;
12145;SDS011;6136;47.032;15.398;2024-03-08T00:35:03;12.40;;;7.90;;
12145;SDS011;6136;47.032;15.398;2024-03-08T00:37:34;11.30;;;7.57;;
12145;SDS011;6136;47.032;15.398;2024-03-08T00:40:02;10.60;;;7.93;;
12145;SDS011;6136;47.032;15.398;2024-03-08T00:42:32;10.13;;;7.57;;
12145;SDS011;6136;47.032;15.398;2024-03-08T00:45:00;9.67;;;7.20;;
12145;SDS011;6136;47.032;15.398;2024-03-08T00:47:29;10.87;;;7.53;;
12145;SDS011;6136;47.032;15.398;2024-03-08T00:49:57;11.43;;;7.83;;
12145;SDS011;6136;47.032;15.398;2024-03-08T00:52:26;12.97;;;7.87;;
12145;SDS011;6136;47.032;15.398;2024-03-08T00:54:54;10.80;;;8.20;;
12145;SDS011;6136;47.032;15.398;2024-03-08T00:57:22;9.67;;;7.20;;
12145;SDS011;6136;47.032;15.398;2024-03-08T00:59:51;11.03;;;7.50;;
12145;SDS011;6136;47.032;15.398;2024-03-08T01:02:19;11.63;;;7.80;;
12145;SDS011;6136;47.032;15.398;2024-03-08T01:04:47;10.63;;;7.60;;
12145;SDS011;6136;47.032;15.398;2024-03-08T01:07:15;11.87;;;7.30;;
12145;SDS011;6136;47.032;15.398;2024-03-08T01:09:43;11.87;;;8.20;;
12145;SDS011;6136;47.032;15.398;2024-03-08T01:12:11;11.57;;;8.03;;
12145;SDS011;6136;47.032;15.398;2024-03-08T01:14:39;10.03;;;8.03;;
12145;SDS011;6136;47.032;15.398;2024-03-08T01:17:08;13.00;;;8.57;;
12145;SDS011;6136;47.032;15.398;2024-03-08T01:19:37;11.00;;;7.50;;
12145;SDS011;6136;47.032;15.398;2024-03-08T01:22:05;11.20;;;7.80;;
12145;SDS011;6136;47.032;15.398;2024-03-08T01:24:34;9.80;;;7.57;;
12145;SDS011;6136;47.032;15.398;2024-03-08T01:27:02;13.00;;;8.10;;
12145;SDS011;6136;47.032;15.398;2024-03-08T01:29:30;11.70;;;8.77;;
12145;SDS011;6136;47.032;15.398;2024-03-08T01:31:59;13.30;;;9.00;;
12145;SDS011;6136;47.032;15.398;2024-03-08T01:34:29;11.90;;;9.17;;
12145;SDS011;6136;47.032;15.398;2024-03-08T01:36:57;15.87;;;9.70;;
12145;SDS011;6136;47.032;15.398;2024-03-08T01:39:26;13.53;;;9.27;;
12145;SDS011;6136;47.032;15.398;2024-03-08T01:41:54;18.70;;;11.57;;
12145;SDS011;6136;47.032;15.398;2024-03-08T01:44:22;18.43;;;12.83;;
12145;SDS011;6136;47.032;15.398;2024-03-08T01:46:50;18.83;;;11.80;;
12145;SDS011;6136;47.032;15.398;2024-03-08T01:49:20;21.10;;;12.70;;
12145;SDS011;6136;47.032;15.398;2024-03-08T01:51:49;20.20;;;12.50;;
12145;SDS011;6136;47.032;15.398;2024-03-08T01:54:18;22.60;;;12.60;;
12145;SDS011;6136;47.032;15.398;2024-03-08T01:56:46;20.00;;;11.77;;
12145;SDS011;6136;47.032;15.398;2024-03-08T01:59:15;19.87;;;11.13;;
12145;SDS011;6136;47.032;15.398;2024-03-08T02:01:43;18.13;;;11.47;;
12145;SDS011;6136;47.032;15.398;2024-03-08T02:04:11;17.50;;;11.83;;
12145;SDS011;6136;47.032;15.398;2024-03-08T02:06:39;18.03;;;11.40;;
12145;SDS011;6136;47.032;15.398;2024-03-08T02:09:08;16.10;;;11.63;;
12145;SDS011;6136;47.032;15.398;2024-03-08T02:11:37;18.40;;;11.67;;
12145;SDS011;6136;47.032;15.398;2024-03-08T02:14:05;19.90;;;12.00;;
12145;SDS011;6136;47.032;15.398;2024-03-08T02:16:33;17.67;;;11.87;;
12145;SDS011;6136;47.032;15.398;2024-03-08T02:19:01;20.87;;;12.30;;
12145;SDS011;6136;47.032;15.398;2024-03-08T02:21:30;18.57;;;12.00;;
12145;SDS011;6136;47.032;15.398;2024-03-08T02:23:59;19.03;;;12.33;;
12145;SDS011;6136;47.032;15.398;2024-03-08T02:26:27;20.93;;;13.37;;
12145;SDS011;6136;47.032;15.398;2024-03-08T02:28:55;18.70;;;12.30;;
12145;SDS011;6136;47.032;15.398;2024-03-08T02:31:23;19.60;;;11.37;;
12145;SDS011;6136;47.032;15.398;2024-03-08T02:33:51;17.33;;;11.67;;
12145;SDS011;6136;47.032;15.398;2024-03-08T02:36:19;20.00;;;12.33;;
12145;SDS011;6136;47.032;15.398;2024-03-08T02:38:49;15.47;;;11.33;;
12145;SDS011;6136;47.032;15.398;2024-03-08T02:41:17;17.07;;;12.13;;
12145;SDS011;6136;47.032;15.398;2024-03-08T02:43:45;20.30;;;12.43;;
12145;SDS011;6136;47.032;15.398;2024-03-08T02:46:13;18.50;;;11.67;;
12145;SDS011;6136;47.032;15.398;2024-03-08T02:48:42;17.63;;;11.73;;
12145;SDS011;6136;47.032;15.398;2024-03-08T02:51:10;18.33;;;12.17;;
12145;SDS011;6136;47.032;15.398;2024-03-08T02:53:38;14.37;;;10.37;;
12145;SDS011;6136;47.032;15.398;2024-03-08T02:56:07;14.90;;;10.77;;
12145;SDS011;6136;47.032;15.398;2024-03-08T02:58:39;14.57;;;10.40;;
12145;SDS011;6136;47.032;15.398;2024-03-08T03:01:07;15.27;;;10.30;;
12145;SDS011;6136;47.032;15.398;2024-03-08T03:03:36;16.07;;;10.07;;
12145;SDS011;6136;47.032;15.398;2024-03-08T03:06:04;14.27;;;10.13;;
12145;SDS011;6136;47.032;15.398;2024-03-08T03:08:33;15.63;;;11.40;;
12145;SDS011;6136;47.032;15.398;2024-03-08T03:11:01;15.87;;;11.63;;
12145;SDS011;6136;47.032;15.398;2024-03-08T03:13:31;15.17;;;10.60;;
12145;SDS011;6136;47.032;15.398;2024-03-08T03:16:00;16.93;;;11.57;;
12145;SDS011;6136;47.032;15.398;2024-03-08T03:18:28;16.10;;;10.33;;
12145;SDS011;6136;47.032;15.398;2024-03-08T03:20:56;14.73;;;10.27;;
12145;SDS011;6136;47.032;15.398;2024-03-08T03:23:24;13.37;;;9.87;;
12145;SDS011;6136;47.032;15.398;2024-03-08T03:25:53;12.30;;;9.17;;
12145;SDS011;6136;47.032;15.398;2024-03-08T03:28:23;14.73;;;9.93;;
12145;SDS011;6136;47.032;15.398;2024-03-08T03:30:53;15.43;;;9.30;;
12145;SDS011;6136;47.032;15.398;2024-03-08T03:33:20;16.90;;;11.23;;
12145;SDS011;6136;47.032;15.398;2024-03-08T03:35:49;13.17;;;9.70;;
12145;SDS011;6136;47.032;15.398;2024-03-08T03:38:18;13.07;;;9.27;;
12145;SDS011;6136;47.032;15.398;2024-03-08T03:40:47;14.03;;;9.70;;
12145;SDS011;6136;47.032;15.398;2024-03-08T03:43:18;14.57;;;9.73;;
12145;SDS011;6136;47.032;15.398;2024-03-08T03:45:46;13.47;;;9.57;;
12145;SDS011;6136;47.032;15.398;2024-03-08T03:48:16;13.23;;;8.97;;
12145;SDS011;6136;47.032;15.398;2024-03-08T03:50:44;12.93;;;9.23;;
12145;SDS011;6136;47.032;15.398;2024-03-08T03:53:12;14.40;;;9.97;;
12145;SDS011;6136;47.032;15.398;2024-03-08T03:55:40;12.73;;;8.60;;
12145;SDS011;6136;47.032;15.398;2024-03-08T03:58:08;13.23;;;9.90;;
12145;SDS011;6136;47.032;15.398;2024-03-08T04:00:37;13.83;;;9.33;;
12145;SDS011;6136;47.032;15.398;2024-03-08T04:03:06;13.40;;;9.47;;
12145;SDS011;6136;47.032;15.398;2024-03-08T04:05:37;15.00;;;9.63;;
12145;SDS011;6136;47.032;15.398;2024-03-08T04:08:05;11.60;;;8.43;;
12145;SDS011;6136;47.032;15.398;2024-03-08T04:10:33;12.33;;;8.63;;
12145;SDS011;6136;47.032;15.398;2024-03-08T04:13:01;14.33;;;9.53;;
12145;SDS011;6136;47.032;15.398;2024-03-08T04:15:30;13.50;;;9.03;;
12145;SDS011;6136;47.032;15.398;2024-03-08T04:17:58;13.97;;;9.70;;
12145;SDS011;6136;47.032;15.398;2024-03-08T04:20:27;11.93;;;8.87;;
12145;SDS011;6136;47.032;15.398;2024-03-08T04:22:56;14.50;;;9.67;;
12145;SDS011;6136;47.032;15.398;2024-03-08T04:25:24;16.13;;;10.30;;
12145;SDS011;6136;47.032;15.398;2024-03-08T04:27:53;14.97;;;10.10;;
12145;SDS011;6136;47.032;15.398;2024-03-08T04:30:21;12.93;;;9.33;;
12145;SDS011;6136;47.032;15.398;2024-03-08T04:32:49;13.90;;;9.67;;
12145;SDS011;6136;47.032;15.398;2024-03-08T04:35:17;14.43;;;8.77;;
12145;SDS011;6136;47.032;15.398;2024-03-08T04:37:46;15.03;;;9.40;;
12145;SDS011;6136;47.032;15.398;2024-03-08T04:40:16;14.07;;;9.60;;
12145;SDS011;6136;47.032;15.398;2024-03-08T04:42:45;14.83;;;10.20;;
12145;SDS011;6136;47.032;15.398;2024-03-08T04:45:14;15.97;;;10.83;;
12145;SDS011;6136;47.032;15.398;2024-03-08T04:47:42;19.93;;;12.50;;
12145;SDS011;6136;47.032;15.398;2024-03-08T04:50:10;15.70;;;11.03;;
12145;SDS011;6136;47.032;15.398;2024-03-08T04:52:38;18.47;;;12.40;;
12145;SDS011;6136;47.032;15.398;2024-03-08T04:55:06;17.87;;;11.67;;
12145;SDS011;6136;47.032;15.398;2024-03-08T04:57:35;18.70;;;11.70;;
12145;SDS011;6136;47.032;15.398;2024-03-08T05:00:03;14.60;;;10.90;;
12145;SDS011;6136;47.032;15.398;2024-03-08T05:02:37;18.00;;;12.17;;
12145;SDS011;6136;47.032;15.398;2024-03-08T05:05:06;17.57;;;10.43;;
12145;SDS011;6136;47.032;15.398;2024-03-08T05:07:33;15.77;;;10.90;;
12145;SDS011;6136;47.032;15.398;2024-03-08T05:10:01;15.87;;;10.30;;
12145;SDS011;6136;47.032;15.398;2024-03-08T05:12:29;19.53;;;13.40;;
12145;SDS011;6136;47.032;15.398;2024-03-08T05:14:59;17.20;;;11.53;;
12145;SDS011;6136;47.032;15.398;2024-03-08T05:17:27;12.53;;;9.53;;
12145;SDS011;6136;47.032;15.398;2024-03-08T05:19:56;14.37;;;10.27;;
12145;SDS011;6136;47.032;15.398;2024-03-08T05:22:24;13.13;;;10.07;;
12145;SDS011;6136;47.032;15.398;2024-03-08T05:24:52;12.40;;;9.47;;
12145;SDS011;6136;47.032;15.398;2024-03-08T05:27:20;14.90;;;10.13;;
12145;SDS011;6136;47.032;15.398;2024-03-08T05:29:48;15.57;;;9.93;;
12145;SDS011;6136;47.032;15.398;2024-03-08T05:32:18;16.17;;;10.20;;
12145;SDS011;6136;47.032;15.398;2024-03-08T05:34:46;13.73;;;10.30;;
12145;SDS011;6136;47.032;15.398;2024-03-08T05:37:14;17.53;;;11.60;;
12145;SDS011;6136;47.032;15.398;2024-03-08T05:39:42;16.47;;;11.00;;
12145;SDS011;6136;47.032;15.398;2024-03-08T05:42:11;24.07;;;14.00;;
12145;SDS011;6136;47.032;15.398;2024-03-08T05:44:39;25.50;;;14.20;;
12145;SDS011;6136;47.032;15.398;2024-03-08T05:47:07;22.73;;;13.80;;
12145;SDS011;6136;47.032;15.398;2024-03-08T05:49:36;20.20;;;12.70;;
12145;SDS011;6136;47.032;15.398;2024-03-08T05:52:04;17.40;;;11.87;;
12145;SDS011;6136;47.032;15.398;2024-03-08T05:54:32;21.67;;;13.13;;
12145;SDS011;6136;47.032;15.398;2024-03-08T05:57:00;20.60;;;12.10;;
12145;SDS011;6136;47.032;15.398;2024-03-08T05:59:28;20.13;;;13.50;;
12145;SDS011;6136;47.032;15.398;2024-03-08T06:01:56;23.33;;;13.87;;
12145;SDS011;6136;47.032;15.398;2024-03-08T06:04:24;21.23;;;13.13;;
12145;SDS011;6136;47.032;15.398;2024-03-08T06:06:53;22.50;;;13.77;;
12145;SDS011;6136;47.032;15.398;2024-03-08T06:09:22;23.17;;;13.43;;
12145;SDS011;6136;47.032;15.398;2024-03-08T06:11:51;20.00;;;12.77;;
12145;SDS011;6136;47.032;15.398;2024-03-08T06:14:21;27.43;;;16.33;;
12145;SDS011;6136;47.032;15.398;2024-03-08T06:16:50;23.57;;;14.50;;
12145;SDS011;6136;47.032;15.398;2024-03-08T06:19:18;23.00;;;14.57;;
12145;SDS011;6136;47.032;15.398;2024-03-08T06:21:45;22.33;;;13.47;;
12145;SDS011;6136;47.032;15.398;2024-03-08T06:24:15;21.03;;;14.47;;
12145;SDS011;6136;47.032;15.398;2024-03-08T06:26:43;21.53;;;14.53;;
12145;SDS011;6136;47.032;15.398;2024-03-08T06:29:11;20.57;;;13.07;;
12145;SDS011;6136;47.032;15.398;2024-03-08T06:31:39;20.23;;;12.97;;
12145;SDS011;6136;47.032;15.398;2024-03-08T06:34:07;18.57;;;11.93;;
12145;SDS011;6136;47.032;15.398;2024-03-08T06:36:36;20.90;;;12.63;;
12145;SDS011;6136;47.032;15.398;2024-03-08T06:39:05;23.20;;;13.60;;
12145;SDS011;6136;47.032;15.398;2024-03-08T06:41:38;22.30;;;12.70;;
12145;SDS011;6136;47.032;15.398;2024-03-08T06:44:06;20.73;;;13.37;;
12145;SDS011;6136;47.032;15.398;2024-03-08T06:46:35;21.33;;;12.83;;
12145;SDS011;6136;47.032;15.398;2024-03-08T06:49:05;21.23;;;13.70;;
12145;SDS011;6136;47.032;15.398;2024-03-08T06:51:33;21.93;;;12.70;;
12145;SDS011;6136;47.032;15.398;2024-03-08T06:54:01;21.03;;;12.73;;
12145;SDS011;6136;47.032;15.398;2024-03-08T06:56:35;19.83;;;12.57;;
12145;SDS011;6136;47.032;15.398;2024-03-08T06:59:05;21.33;;;12.17;;
12145;SDS011;6136;47.032;15.398;2024-03-08T07:01:33;19.80;;;12.47;;
12145;SDS011;6136;47.032;15.398;2024-03-08T07:04:03;19.00;;;12.50;;
12145;SDS011;6136;47.032;15.398;2024-03-08T07:06:33;18.17;;;12.57;;
12145;SDS011;6136;47.032;15.398;2024-03-08T07:09:01;18.13;;;12.17;;
12145;SDS011;6136;47.032;15.398;2024-03-08T07:11:29;17.57;;;11.27;;
12145;SDS011;6136;47.032;15.398;2024-03-08T07:13:57;19.93;;;12.37;;
12145;SDS011;6136;47.032;15.398;2024-03-08T07:16:26;15.53;;;11.03;;
12145;SDS011;6136;47.032;15.398;2024-03-08T07:18:55;19.83;;;12.33;;
12145;SDS011;6136;47.032;15.398;2024-03-08T07:21:23;22.90;;;12.10;;
12145;SDS011;6136;47.032;15.398;2024-03-08T07:23:51;16.97;;;11.13;;
12145;SDS011;6136;47.032;15.398;2024-03-08T07:26:40;20.13;;;12.10;;
12145;SDS011;6136;47.032;15.398;2024-03-08T07:29:07;22.57;;;11.87;;
12145;SDS011;6136;47.032;15.398;2024-03-08T07:31:37;18.23;;;11.83;;
12145;SDS011;6136;47.032;15.398;2024-03-08T07:34:16;18.50;;;12.60;;
12145;SDS011;6136;47.032;15.398;2024-03-08T07:36:44;21.50;;;11.80;;
12145;SDS011;6136;47.032;15.398;2024-03-08T07:39:12;18.97;;;12.03;;
12145;SDS011;6136;47.032;15.398;2024-03-08T07:41:40;17.57;;;11.90;;
12145;SDS011;6136;47.032;15.398;2024-03-08T07:44:08;19.33;;;12.03;;
12145;SDS011;6136;47.032;15.398;2024-03-08T07:46:38;19.70;;;12.10;;
12145;SDS011;6136;47.032;15.398;2024-03-08T07:49:08;17.57;;;11.37;;
12145;SDS011;6136;47.032;15.398;2024-03-08T07:51:37;19.17;;;12.00;;
12145;SDS011;6136;47.032;15.398;2024-03-08T07:54:05;18.27;;;10.93;;
12145;SDS011;6136;47.032;15.398;2024-03-08T07:56:35;16.00;;;10.70;;
12145;SDS011;6136;47.032;15.398;2024-03-08T07:59:04;17.40;;;11.93;;
12145;SDS011;6136;47.032;15.398;2024-03-08T08:01:32;17.33;;;11.33;;
12145;SDS011;6136;47.032;15.398;2024-03-08T08:04:02;25.20;;;12.47;;
12145;SDS011;6136;47.032;15.398;2024-03-08T08:06:30;19.27;;;12.30;;
12145;SDS011;6136;47.032;15.398;2024-03-08T08:08:59;23.43;;;13.87;;
12145;SDS011;6136;47.032;15.398;2024-03-08T08:11:28;20.43;;;12.00;;
12145;SDS011;6136;47.032;15.398;2024-03-08T08:13:56;20.80;;;13.30;;
12145;SDS011;6136;47.032;15.398;2024-03-08T08:16:24;18.97;;;12.07;;
12145;SDS011;6136;47.032;15.398;2024-03-08T08:18:52;17.77;;;11.03;;
12145;SDS011;6136;47.032;15.398;2024-03-08T08:21:22;19.87;;;11.67;;
12145;SDS011;6136;47.032;15.398;2024-03-08T08:23:51;18.83;;;11.73;;
12145;SDS011;6136;47.032;15.398;2024-03-08T08:26:19;19.53;;;12.13;;
12145;SDS011;6136;47.032;15.398;2024-03-08T08:28:47;18.33;;;11.70;;
12145;SDS011;6136;47.032;15.398;2024-03-08T08:31:16;17.87;;;12.10;;
12145;SDS011;6136;47.032;15.398;2024-03-08T08:33:44;17.03;;;10.97;;
12145;SDS011;6136;47.032;15.398;2024-03-08T08:36:15;19.33;;;12.13;;
12145;SDS011;6136;47.032;15.398;2024-03-08T08:38:45;14.93;;;10.37;;
12145;SDS011;6136;47.032;15.398;2024-03-08T08:41:13;17.23;;;11.00;;
12145;SDS011;6136;47.032;15.398;2024-03-08T08:43:42;18.83;;;11.27;;
12145;SDS011;6136;47.032;15.398;2024-03-08T08:46:28;15.63;;;10.73;;
12145;SDS011;6136;47.032;15.398;2024-03-08T08:48:56;18.50;;;10.27;;
12145;SDS011;6136;47.032;15.398;2024-03-08T08:51:25;15.57;;;10.73;;
12145;SDS011;6136;47.032;15.398;2024-03-08T08:53:55;16.00;;;10.53;;
12145;SDS011;6136;47.032;15.398;2024-03-08T08:56:23;15.47;;;10.30;;
12145;SDS011;6136;47.032;15.398;2024-03-08T08:58:52;19.43;;;11.10;;
12145;SDS011;6136;47.032;15.398;2024-03-08T09:01:21;13.90;;;10.13;;
12145;SDS011;6136;47.032;15.398;2024-03-08T09:03:49;14.67;;;10.30;;
12145;SDS011;6136;47.032;15.398;2024-03-08T09:06:18;14.90;;;9.77;;
12145;SDS011;6136;47.032;15.398;2024-03-08T09:08:46;14.83;;;9.87;;
12145;SDS011;6136;47.032;15.398;2024-03-08T09:11:16;14.47;;;9.57;;
12145;SDS011;6136;47.032;15.398;2024-03-08T09:13:44;16.20;;;9.83;;
12145;SDS011;6136;47.032;15.398;2024-03-08T09:16:12;12.57;;;9.37;;
12145;SDS011;6136;47.032;15.398;2024-03-08T09:18:40;15.17;;;9.93;;
12145;SDS011;6136;47.032;15.398;2024-03-08T09:21:08;12.60;;;9.77;;
12145;SDS011;6136;47.032;15.398;2024-03-08T09:23:37;15.87;;;9.77;;
12145;SDS011;6136;47.032;15.398;2024-03-08T09:26:05;11.40;;;8.30;;
12145;SDS011;6136;47.032;15.398;2024-03-08T09:28:49;13.73;;;8.67;;
12145;SDS011;6136;47.032;15.398;2024-03-08T09:31:17;12.87;;;8.37;;
12145;SDS011;6136;47.032;15.398;2024-03-08T09:33:46;11.20;;;8.60;;
12145;SDS011;6136;47.032;15.398;2024-03-08T09:36:14;13.27;;;8.47;;
12145;SDS011;6136;47.032;15.398;2024-03-08T09:38:42;11.97;;;9.20;;
12145;SDS011;6136;47.032;15.398;2024-03-08T09:41:10;14.77;;;8.30;;
12145;SDS011;6136;47.032;15.398;2024-03-08T09:43:39;12.67;;;7.23;;
12145;SDS011;6136;47.032;15.398;2024-03-08T09:46:08;10.43;;;7.63;;
12145;SDS011;6136;47.032;15.398;2024-03-08T09:48:37;10.50;;;7.53;;
12145;SDS011;6136;47.032;15.398;2024-03-08T09:51:08;11.37;;;7.57;;
12145;SDS011;6136;47.032;15.398;2024-03-08T09:53:40;17.37;;;8.43;;
12145;SDS011;6136;47.032;15.398;2024-03-08T09:56:08;15.23;;;8.90;;
12145;SDS011;6136;47.032;15.398;2024-03-08T09:58:36;13.10;;;8.30;;
12145;SDS011;6136;47.032;15.398;2024-03-08T10:01:20;13.13;;;9.00;;
12145;SDS011;6136;47.032;15.398;2024-03-08T10:03:49;10.10;;;7.63;;
12145;SDS011;6136;47.032;15.398;2024-03-08T10:06:18;13.03;;;8.90;;
12145;SDS011;6136;47.032;15.398;2024-03-08T10:08:49;13.53;;;8.90;;
12145;SDS011;6136;47.032;15.398;2024-03-08T10:11:18;10.87;;;8.40;;
12145;SDS011;6136;47.032;15.398;2024-03-08T10:13:47;13.23;;;8.80;;
12145;SDS011;6136;47.032;15.398;2024-03-08T10:16:15;14.33;;;8.83;;
12145;SDS011;6136;47.032;15.398;2024-03-08T10:18:46;12.63;;;8.43;;
12145;SDS011;6136;47.032;15.398;2024-03-08T10:21:14;11.67;;;8.23;;
12145;SDS011;6136;47.032;15.398;2024-03-08T10:23:43;10.27;;;8.00;;
12145;SDS011;6136;47.032;15.398;2024-03-08T10:26:11;10.87;;;7.43;;
12145;SDS011;6136;47.032;15.398;2024-03-08T10:28:42;9.47;;;7.17;;
12145;SDS011;6136;47.032;15.398;2024-03-08T10:31:10;8.40;;;7.20;;
12145;SDS011;6136;47.032;15.398;2024-03-08T10:33:41;8.50;;;7.13;;
12145;SDS011;6136;47.032;15.398;2024-03-08T10:36:10;8.80;;;7.75;;
12145;SDS011;6136;47.032;15.398;2024-03-08T10:38:39;8.02;;;7.18;;
12145;SDS011;6136;47.032;15.398;2024-03-08T10:41:08;8.23;;;7.20;;
12145;SDS011;6136;47.032;15.398;2024-03-08T10:43:40;7.45;;;6.65;;
12145;SDS011;6136;47.032;15.398;2024-03-08T10:46:15;7.43;;;6.47;;
12145;SDS011;6136;47.032;15.398;2024-03-08T10:48:46;8.77;;;7.03;;
12145;SDS011;6136;47.032;15.398;2024-03-08T10:51:17;9.23;;;7.22;;
12145;SDS011;6136;47.032;15.398;2024-03-08T10:53:46;8.35;;;7.10;;
12145;SDS011;6136;47.032;15.398;2024-03-08T10:56:15;7.97;;;6.95;;
12145;SDS011;6136;47.032;15.398;2024-03-08T10:58:43;8.05;;;7.25;;
12145;SDS011;6136;47.032;15.398;2024-03-08T11:01:12;7.28;;;6.50;;
12145;SDS011;6136;47.032;15.398;2024-03-08T11:03:46;7.47;;;6.65;;
12145;SDS011;6136;47.032;15.398;2024-03-08T11:06:22;9.13;;;7.43;;
12145;SDS011;6136;47.032;15.398;2024-03-08T11:08:50;8.10;;;7.10;;
12145;SDS011;6136;47.032;15.398;2024-03-08T11:11:25;7.53;;;6.72;;
12145;SDS011;6136;47.032;15.398;2024-03-08T11:14:01;7.72;;;6.82;;
12145;SDS011;6136;47.032;15.398;2024-03-08T11:16:40;8.55;;;7.13;;
12145;SDS011;6136;47.032;15.398;2024-03-08T11:19:24;9.30;;;7.50;;
12145;SDS011;6136;47.032;15.398;2024-03-08T11:22:00;7.97;;;6.97;;
12145;SDS011;6136;47.032;15.398;2024-03-08T11:24:36;10.37;;;7.67;;
12145;SDS011;6136;47.032;15.398;2024-03-08T11:27:06;9.47;;;7.80;;
12145;SDS011;6136;47.032;15.398;2024-03-08T11:29:36;8.00;;;6.30;;
12145;SDS011;6136;47.032;15.398;2024-03-08T11:32:10;8.90;;;6.93;;
12145;SDS011;6136;47.032;15.398;2024-03-08T11:34:39;7.40;;;5.90;;
12145;SDS011;6136;47.032;15.398;2024-03-08T11:37:12;8.30;;;6.57;;
12145;SDS011;6136;47.032;15.398;2024-03-08T11:39:46;8.07;;;6.80;;
12145;SDS011;6136;47.032;15.398;2024-03-08T11:42:14;8.70;;;6.78;;
12145;SDS011;6136;47.032;15.398;2024-03-08T11:44:44;8.18;;;6.28;;
12145;SDS011;6136;47.032;15.398;2024-03-08T11:47:12;7.38;;;6.40;;
12145;SDS011;6136;47.032;15.398;2024-03-08T11:49:40;6.57;;;5.97;;
12145;SDS011;6136;47.032;15.398;2024-03-08T11:52:12;6.90;;;6.20;;
12145;SDS011;6136;47.032;15.398;2024-03-08T11:54:40;6.18;;;5.32;;
12145;SDS011;6136;47.032;15.398;2024-03-08T11:57:10;6.57;;;5.57;;
12145;SDS011;6136;47.032;15.398;2024-03-08T11:59:37;6.22;;;5.60;;
12145;SDS011;6136;47.032;15.398;2024-03-08T12:02:06;9.77;;;7.43;;
12145;SDS011;6136;47.032;15.398;2024-03-08T12:04:37;10.07;;;7.28;;
12145;SDS011;6136;47.032;15.398;2024-03-08T12:07:05;7.93;;;6.05;;
12145;SDS011;6136;47.032;15.398;2024-03-08T12:09:37;6.43;;;5.75;;
12145;SDS011;6136;47.032;15.398;2024-03-08T12:12:06;6.20;;;5.60;;
12145;SDS011;6136;47.032;15.398;2024-03-08T12:14:35;8.82;;;6.82;;
12145;SDS011;6136;47.032;15.398;2024-03-08T12:17:03;7.57;;;6.78;;
12145;SDS011;6136;47.032;15.398;2024-03-08T12:19:32;9.30;;;6.83;;
12145;SDS011;6136;47.032;15.398;2024-03-08T12:22:07;7.40;;;6.60;;
12145;SDS011;6136;47.032;15.398;2024-03-08T12:24:35;8.93;;;6.67;;
12145;SDS011;6136;47.032;15.398;2024-03-08T12:27:18;7.20;;;5.70;;
12145;SDS011;6136;47.032;15.398;2024-03-08T12:29:46;9.70;;;6.13;;
12145;SDS011;6136;47.032;15.398;2024-03-08T12:32:15;8.53;;;6.50;;
12145;SDS011;6136;47.032;15.398;2024-03-08T12:34:43;8.07;;;5.93;;
12145;SDS011;6136;47.032;15.398;2024-03-08T12:37:12;7.67;;;6.20;;
12145;SDS011;6136;47.032;15.398;2024-03-08T12:39:40;8.60;;;6.70;;
12145;SDS011;6136;47.032;15.398;2024-03-08T12:42:12;8.27;;;5.80;;
12145;SDS011;6136;47.032;15.398;2024-03-08T12:44:41;7.83;;;6.33;;
12145;SDS011;6136;47.032;15.398;2024-03-08T12:47:09;7.63;;;6.13;;
12145;SDS011;6136;47.032;15.398;2024-03-08T12:49:37;7.77;;;6.97;;
12145;SDS011;6136;47.032;15.398;2024-03-08T12:52:08;11.27;;;7.07;;
12145;SDS011;6136;47.032;15.398;2024-03-08T12:54:36;8.80;;;6.53;;
12145;SDS011;6136;47.032;15.398;2024-03-08T12:57:04;8.63;;;6.57;;
12145;SDS011;6136;47.032;15.398;2024-03-08T12:59:33;9.07;;;6.73;;
12145;SDS011;6136;47.032;15.398;2024-03-08T13:02:02;8.00;;;6.70;;
12145;SDS011;6136;47.032;15.398;2024-03-08T13:04:32;12.30;;;6.50;;
12145;SDS011;6136;47.032;15.398;2024-03-08T13:07:00;11.17;;;6.67;;
12145;SDS011;6136;47.032;15.398;2024-03-08T13:09:28;10.40;;;7.30;;
12145;SDS011;6136;47.032;15.398;2024-03-08T13:11:58;8.63;;;6.60;;
12145;SDS011;6136;47.032;15.398;2024-03-08T13:14:27;9.23;;;6.57;;
12145;SDS011;6136;47.032;15.398;2024-03-08T13:16:58;8.00;;;6.47;;
12145;SDS011;6136;47.032;15.398;2024-03-08T13:19:28;9.50;;;6.93;;
12145;SDS011;6136;47.032;15.398;2024-03-08T13:21:56;10.43;;;7.50;;
12145;SDS011;6136;47.032;15.398;2024-03-08T13:24:23;10.13;;;7.20;;
12145;SDS011;6136;47.032;15.398;2024-03-08T13:26:51;9.33;;;6.87;;
12145;SDS011;6136;47.032;15.398;2024-03-08T13:29:19;8.83;;;7.03;;
12145;SDS011;6136;47.032;15.398;2024-03-08T13:31:47;8.87;;;6.70;;
12145;SDS011;6136;47.032;15.398;2024-03-08T13:34:18;9.97;;;7.67;;
12145;SDS011;6136;47.032;15.398;2024-03-08T13:36:55;12.80;;;8.03;;
12145;SDS011;6136;47.032;15.398;2024-03-08T13:39:27;11.77;;;7.60;;
12145;SDS011;6136;47.032;15.398;2024-03-08T13:41:57;10.90;;;7.80;;
12145;SDS011;6136;47.032;15.398;2024-03-08T13:44:25;10.57;;;7.67;;
12145;SDS011;6136;47.032;15.398;2024-03-08T13:46:54;10.70;;;8.43;;
12145;SDS011;6136;47.032;15.398;2024-03-08T13:49:24;10.40;;;7.70;;
12145;SDS011;6136;47.032;15.398;2024-03-08T13:51:53;11.60;;;7.50;;
12145;SDS011;6136;47.032;15.398;2024-03-08T13:54:22;10.73;;;7.20;;
12145;SDS011;6136;47.032;15.398;2024-03-08T13:56:50;10.93;;;7.90;;
12145;SDS011;6136;47.032;15.398;2024-03-08T13:59:20;13.97;;;8.47;;
12145;SDS011;6136;47.032;15.398;2024-03-08T14:01:49;13.10;;;8.47;;
12145;SDS011;6136;47.032;15.398;2024-03-08T14:04:17;11.03;;;8.37;;
12145;SDS011;6136;47.032;15.398;2024-03-08T14:06:45;13.83;;;8.73;;
12145;SDS011;6136;47.032;15.398;2024-03-08T14:09:13;11.33;;;8.10;;
12145;SDS011;6136;47.032;15.398;2024-03-08T14:11:45;13.47;;;9.20;;
12145;SDS011;6136;47.032;15.398;2024-03-08T14:14:12;10.07;;;8.40;;
12145;SDS011;6136;47.032;15.398;2024-03-08T14:16:40;12.30;;;8.57;;
12145;SDS011;6136;47.032;15.398;2024-03-08T14:19:10;14.47;;;8.87;;
12145;SDS011;6136;47.032;15.398;2024-03-08T14:21:37;11.10;;;8.50;;
12145;SDS011;6136;47.032;15.398;2024-03-08T14:24:06;10.30;;;7.80;;
12145;SDS011;6136;47.032;15.398;2024-03-08T14:26:34;10.20;;;7.87;;
12145;SDS011;6136;47.032;15.398;2024-03-08T14:29:06;13.90;;;8.57;;
12145;SDS011;6136;47.032;15.398;2024-03-08T14:31:34;10.20;;;7.70;;
12145;SDS011;6136;47.032;15.398;2024-03-08T14:34:02;10.33;;;7.23;;
12145;SDS011;6136;47.032;15.398;2024-03-08T14:36:30;12.20;;;8.03;;
12145;SDS011;6136;47.032;15.398;2024-03-08T14:38:58;14.83;;;8.30;;
12145;SDS011;6136;47.032;15.398;2024-03-08T14:41:26;12.03;;;8.53;;